sensor_id;sensor_type;location;lat;lon;timestamp;P1;durP1;ratioP1;P2;durP2;ratioP2
44564;SDS011;30275;51.822;-0.326;2023-03-01T00:01:36;2.33;;;1.90;;
44564;SDS011;30275;51.822;-0.326;2023-03-01T00:04:01;2.80;;;1.80;;
44564;SDS011;30275;51.822;-0.326;2023-03-01T00:06:27;3.88;;;2.00;;
44564;SDS011;30275;51.822;-0.326;2023-03-01T00:08:53;4.40;;;1.80;;
44564;SDS011;30275;51.822;-0.326;2023-03-01T00:11:24;2.55;;;1.90;;
44564;SDS011;30275;51.822;-0.326;2023-03-01T00:13:52;1.70;;;1.48;;
44564;SDS011;30275;51.822;-0.326;2023-03-01T00:18:49;2.38;;;1.67;;
44564;SDS011;30275;51.822;-0.326;2023-03-01T00:21:15;2.08;;;1.73;;
44564;SDS011;30275;51.822;-0.326;2023-03-01T00:23:41;3.63;;;1.77;;
44564;SDS011;30275;51.822;-0.326;2023-03-01T00:26:09;2.50;;;1.90;;
44564;SDS011;30275;51.822;-0.326;2023-03-01T00:28:37;1.67;;;1.42;;
44564;SDS011;30275;51.822;-0.326;2023-03-01T00:31:06;3.17;;;1.90;;
44564;SDS011;30275;51.822;-0.326;2023-03-01T00:33:37;1.95;;;1.75;;
44564;SDS011;30275;51.822;-0.326;2023-03-01T00:36:03;1.63;;;1.48;;
44564;SDS011;30275;51.822;-0.326;2023-03-01T00:38:28;1.83;;;1.52;;
44564;SDS011;30275;51.822;-0.326;2023-03-01T00:40:54;2.33;;;1.83;;
44564;SDS011;30275;51.822;-0.326;2023-03-01T00:43:20;2.65;;;1.63;;
44564;SDS011;30275;51.822;-0.326;2023-03-01T00:45:47;2.50;;;1.92;;
44564;SDS011;30275;51.822;-0.326;2023-03-01T00:48:15;2.33;;;1.77;;
44564;SDS011;30275;51.822;-0.326;2023-03-01T00:50:45;2.17;;;1.60;;
44564;SDS011;30275;51.822;-0.326;2023-03-01T00:53:11;2.85;;;2.10;;
44564;SDS011;30275;51.822;-0.326;2023-03-01T00:55:36;2.25;;;1.80;;
44564;SDS011;30275;51.822;-0.326;2023-03-01T00:58:02;1.63;;;1.42;;
44564;SDS011;30275;51.822;-0.326;2023-03-01T01:00:28;2.40;;;1.98;;
44564;SDS011;30275;51.822;-0.326;2023-03-01T01:02:53;2.42;;;1.95;;
44564;SDS011;30275;51.822;-0.326;2023-03-01T01:05:19;2.60;;;1.73;;
44564;SDS011;30275;51.822;-0.326;2023-03-01T01:07:45;2.15;;;1.65;;
44564;SDS011;30275;51.822;-0.326;2023-03-01T01:10:12;2.17;;;1.98;;
44564;SDS011;30275;51.822;-0.326;2023-03-01T01:12:41;6.22;;;2.75;;
44564;SDS011;30275;51.822;-0.326;2023-03-01T01:15:08;3.95;;;2.00;;
44564;SDS011;30275;51.822;-0.326;2023-03-01T01:17:37;2.28;;;1.73;;
44564;SDS011;30275;51.822;-0.326;2023-03-01T01:20:03;4.95;;;1.98;;
44564;SDS011;30275;51.822;-0.326;2023-03-01T01:22:28;3.55;;;2.13;;
44564;SDS011;30275;51.822;-0.326;2023-03-01T01:24:54;3.03;;;2.35;;
44564;SDS011;30275;51.822;-0.326;2023-03-01T01:27:20;2.25;;;1.95;;
44564;SDS011;30275;51.822;-0.326;2023-03-01T01:29:45;2.75;;;2.20;;
44564;SDS011;30275;51.822;-0.326;2023-03-01T01:32:11;3.28;;;2.67;;
44564;SDS011;30275;51.822;-0.326;2023-03-01T01:34:36;3.90;;;2.15;;
44564;SDS011;30275;51.822;-0.326;2023-03-01T01:37:02;3.80;;;2.13;;
44564;SDS011;30275;51.822;-0.326;2023-03-01T01:39:28;2.88;;;2.40;;
44564;SDS011;30275;51.822;-0.326;2023-03-01T01:41:53;3.15;;;2.53;;
44564;SDS011;30275;51.822;-0.326;2023-03-01T01:44:23;3.50;;;2.47;;
44564;SDS011;30275;51.822;-0.326;2023-03-01T01:49:38;3.97;;;2.60;;
44564;SDS011;30275;51.822;-0.326;2023-03-01T01:52:34;4.15;;;2.50;;
44564;SDS011;30275;51.822;-0.326;2023-03-01T01:57:47;4.32;;;2.97;;
44564;SDS011;30275;51.822;-0.326;2023-03-01T02:00:17;5.07;;;2.80;;
44564;SDS011;30275;51.822;-0.326;2023-03-01T02:02:46;5.88;;;2.95;;
44564;SDS011;30275;51.822;-0.326;2023-03-01T02:05:28;4.63;;;2.70;;
44564;SDS011;30275;51.822;-0.326;2023-03-01T02:08:16;4.38;;;3.20;;
44564;SDS011;30275;51.822;-0.326;2023-03-01T02:10:44;4.38;;;3.10;;
44564;SDS011;30275;51.822;-0.326;2023-03-01T02:13:11;4.45;;;2.95;;
44564;SDS011;30275;51.822;-0.326;2023-03-01T02:15:37;5.07;;;3.13;;
44564;SDS011;30275;51.822;-0.326;2023-03-01T02:18:04;4.90;;;3.05;;
44564;SDS011;30275;51.822;-0.326;2023-03-01T02:23:12;4.80;;;3.10;;
44564;SDS011;30275;51.822;-0.326;2023-03-01T02:32:04;4.88;;;3.60;;
44564;SDS011;30275;51.822;-0.326;2023-03-01T02:34:30;6.95;;;3.90;;
44564;SDS011;30275;51.822;-0.326;2023-03-01T02:37:08;4.75;;;2.97;;
44564;SDS011;30275;51.822;-0.326;2023-03-01T02:39:40;5.63;;;3.15;;
44564;SDS011;30275;51.822;-0.326;2023-03-01T02:42:13;4.53;;;3.00;;
44564;SDS011;30275;51.822;-0.326;2023-03-01T02:44:43;4.90;;;2.92;;
44564;SDS011;30275;51.822;-0.326;2023-03-01T02:47:09;5.10;;;2.90;;
44564;SDS011;30275;51.822;-0.326;2023-03-01T02:49:35;4.95;;;3.28;;
44564;SDS011;30275;51.822;-0.326;2023-03-01T02:52:15;5.25;;;3.38;;
44564;SDS011;30275;51.822;-0.326;2023-03-01T02:57:34;4.65;;;3.00;;
44564;SDS011;30275;51.822;-0.326;2023-03-01T03:00:13;5.60;;;2.80;;
44564;SDS011;30275;51.822;-0.326;2023-03-01T03:02:44;3.40;;;2.38;;
44564;SDS011;30275;51.822;-0.326;2023-03-01T03:05:15;4.35;;;2.10;;
44564;SDS011;30275;51.822;-0.326;2023-03-01T03:07:43;3.22;;;1.63;;
44564;SDS011;30275;51.822;-0.326;2023-03-01T03:10:18;4.22;;;1.90;;
44564;SDS011;30275;51.822;-0.326;2023-03-01T03:12:55;2.17;;;1.52;;
44564;SDS011;30275;51.822;-0.326;2023-03-01T03:15:23;3.20;;;2.20;;
44564;SDS011;30275;51.822;-0.326;2023-03-01T03:17:49;3.50;;;1.70;;
44564;SDS011;30275;51.822;-0.326;2023-03-01T03:20:16;3.95;;;1.52;;
44564;SDS011;30275;51.822;-0.326;2023-03-01T03:25:49;3.13;;;1.40;;
44564;SDS011;30275;51.822;-0.326;2023-03-01T03:28:15;3.10;;;1.80;;
44564;SDS011;30275;51.822;-0.326;2023-03-01T03:30:41;3.50;;;1.55;;
44564;SDS011;30275;51.822;-0.326;2023-03-01T03:33:08;4.03;;;1.58;;
44564;SDS011;30275;51.822;-0.326;2023-03-01T03:35:39;2.42;;;1.60;;
44564;SDS011;30275;51.822;-0.326;2023-03-01T03:38:10;2.75;;;1.70;;
44564;SDS011;30275;51.822;-0.326;2023-03-01T03:40:42;1.85;;;1.42;;
44564;SDS011;30275;51.822;-0.326;2023-03-01T03:43:11;3.15;;;1.50;;
44564;SDS011;30275;51.822;-0.326;2023-03-01T03:45:38;2.13;;;1.60;;
44564;SDS011;30275;51.822;-0.326;2023-03-01T03:48:06;2.80;;;2.00;;
44564;SDS011;30275;51.822;-0.326;2023-03-01T03:50:33;3.10;;;1.48;;
44564;SDS011;30275;51.822;-0.326;2023-03-01T03:53:02;2.58;;;1.58;;
44564;SDS011;30275;51.822;-0.326;2023-03-01T03:55:30;5.30;;;2.88;;
44564;SDS011;30275;51.822;-0.326;2023-03-01T03:57:59;2.85;;;1.55;;
44564;SDS011;30275;51.822;-0.326;2023-03-01T04:00:31;4.25;;;1.77;;
44564;SDS011;30275;51.822;-0.326;2023-03-01T04:02:58;3.05;;;1.88;;
44564;SDS011;30275;51.822;-0.326;2023-03-01T04:05:25;3.05;;;1.70;;
44564;SDS011;30275;51.822;-0.326;2023-03-01T04:07:51;4.85;;;1.80;;
44564;SDS011;30275;51.822;-0.326;2023-03-01T04:10:41;4.07;;;2.08;;
44564;SDS011;30275;51.822;-0.326;2023-03-01T04:13:10;4.05;;;1.70;;
44564;SDS011;30275;51.822;-0.326;2023-03-01T04:15:37;3.13;;;1.80;;
44564;SDS011;30275;51.822;-0.326;2023-03-01T04:18:03;5.18;;;2.05;;
44564;SDS011;30275;51.822;-0.326;2023-03-01T04:20:31;6.88;;;1.70;;
44564;SDS011;30275;51.822;-0.326;2023-03-01T04:23:00;2.65;;;1.70;;
44564;SDS011;30275;51.822;-0.326;2023-03-01T04:25:38;3.22;;;1.83;;
44564;SDS011;30275;51.822;-0.326;2023-03-01T04:28:11;2.80;;;1.60;;
44564;SDS011;30275;51.822;-0.326;2023-03-01T04:30:37;2.75;;;1.60;;
44564;SDS011;30275;51.822;-0.326;2023-03-01T04:33:07;3.13;;;1.70;;
44564;SDS011;30275;51.822;-0.326;2023-03-01T04:35:34;4.10;;;1.80;;
44564;SDS011;30275;51.822;-0.326;2023-03-01T04:38:01;2.35;;;1.42;;
44564;SDS011;30275;51.822;-0.326;2023-03-01T04:40:27;3.55;;;1.95;;
44564;SDS011;30275;51.822;-0.326;2023-03-01T04:42:52;3.17;;;1.77;;
44564;SDS011;30275;51.822;-0.326;2023-03-01T04:45:18;4.38;;;2.10;;
44564;SDS011;30275;51.822;-0.326;2023-03-01T04:47:45;3.65;;;1.83;;
44564;SDS011;30275;51.822;-0.326;2023-03-01T04:50:12;5.75;;;2.38;;
44564;SDS011;30275;51.822;-0.326;2023-03-01T04:52:45;6.05;;;1.95;;
44564;SDS011;30275;51.822;-0.326;2023-03-01T04:55:12;7.15;;;2.08;;
44564;SDS011;30275;51.822;-0.326;2023-03-01T04:57:38;6.88;;;2.65;;
44564;SDS011;30275;51.822;-0.326;2023-03-01T05:00:05;6.40;;;2.10;;
44564;SDS011;30275;51.822;-0.326;2023-03-01T05:02:51;5.47;;;1.90;;
44564;SDS011;30275;51.822;-0.326;2023-03-01T05:08:06;8.25;;;3.25;;
44564;SDS011;30275;51.822;-0.326;2023-03-01T05:10:33;8.30;;;3.22;;
44564;SDS011;30275;51.822;-0.326;2023-03-01T05:13:01;7.07;;;2.70;;
44564;SDS011;30275;51.822;-0.326;2023-03-01T05:15:29;4.45;;;2.47;;
44564;SDS011;30275;51.822;-0.326;2023-03-01T05:17:56;3.60;;;2.63;;
44564;SDS011;30275;51.822;-0.326;2023-03-01T05:20:24;4.38;;;2.17;;
44564;SDS011;30275;51.822;-0.326;2023-03-01T05:22:58;5.60;;;2.45;;
44564;SDS011;30275;51.822;-0.326;2023-03-01T05:25:24;6.70;;;2.50;;
44564;SDS011;30275;51.822;-0.326;2023-03-01T05:27:50;4.97;;;2.38;;
44564;SDS011;30275;51.822;-0.326;2023-03-01T05:30:16;4.95;;;2.35;;
44564;SDS011;30275;51.822;-0.326;2023-03-01T05:32:44;4.05;;;2.17;;
44564;SDS011;30275;51.822;-0.326;2023-03-01T05:35:14;3.80;;;2.40;;
44564;SDS011;30275;51.822;-0.326;2023-03-01T05:37:42;4.88;;;2.50;;
44564;SDS011;30275;51.822;-0.326;2023-03-01T05:40:13;4.22;;;2.65;;
44564;SDS011;30275;51.822;-0.326;2023-03-01T05:42:47;7.70;;;2.67;;
44564;SDS011;30275;51.822;-0.326;2023-03-01T05:45:15;4.57;;;2.50;;
44564;SDS011;30275;51.822;-0.326;2023-03-01T05:47:43;5.72;;;2.50;;
44564;SDS011;30275;51.822;-0.326;2023-03-01T05:50:12;3.97;;;2.40;;
44564;SDS011;30275;51.822;-0.326;2023-03-01T05:52:44;7.97;;;2.78;;
44564;SDS011;30275;51.822;-0.326;2023-03-01T05:55:18;3.40;;;2.20;;
44564;SDS011;30275;51.822;-0.326;2023-03-01T05:57:44;4.85;;;2.63;;
44564;SDS011;30275;51.822;-0.326;2023-03-01T06:00:11;6.35;;;2.63;;
44564;SDS011;30275;51.822;-0.326;2023-03-01T06:02:38;6.00;;;2.60;;
44564;SDS011;30275;51.822;-0.326;2023-03-01T06:05:05;3.78;;;2.22;;
44564;SDS011;30275;51.822;-0.326;2023-03-01T06:07:32;6.28;;;2.45;;
44564;SDS011;30275;51.822;-0.326;2023-03-01T06:09:58;5.60;;;2.28;;
44564;SDS011;30275;51.822;-0.326;2023-03-01T06:12:23;3.88;;;2.50;;
44564;SDS011;30275;51.822;-0.326;2023-03-01T06:14:49;3.08;;;2.10;;
44564;SDS011;30275;51.822;-0.326;2023-03-01T06:17:15;4.80;;;2.15;;
44564;SDS011;30275;51.822;-0.326;2023-03-01T06:19:40;5.55;;;2.97;;
44564;SDS011;30275;51.822;-0.326;2023-03-01T06:22:06;5.13;;;2.17;;
44564;SDS011;30275;51.822;-0.326;2023-03-01T06:24:32;4.68;;;2.67;;
44564;SDS011;30275;51.822;-0.326;2023-03-01T06:26:58;7.75;;;3.38;;
44564;SDS011;30275;51.822;-0.326;2023-03-01T06:29:23;10.55;;;2.95;;
44564;SDS011;30275;51.822;-0.326;2023-03-01T06:31:49;5.85;;;2.60;;
44564;SDS011;30275;51.822;-0.326;2023-03-01T06:34:14;8.75;;;2.70;;
44564;SDS011;30275;51.822;-0.326;2023-03-01T06:36:40;5.13;;;3.00;;
44564;SDS011;30275;51.822;-0.326;2023-03-01T06:39:06;6.07;;;3.08;;
44564;SDS011;30275;51.822;-0.326;2023-03-01T06:41:32;6.65;;;2.88;;
44564;SDS011;30275;51.822;-0.326;2023-03-01T06:43:58;8.23;;;3.50;;
44564;SDS011;30275;51.822;-0.326;2023-03-01T06:46:24;4.57;;;2.83;;
44564;SDS011;30275;51.822;-0.326;2023-03-01T06:48:50;6.30;;;2.88;;
44564;SDS011;30275;51.822;-0.326;2023-03-01T06:51:15;4.75;;;3.00;;
44564;SDS011;30275;51.822;-0.326;2023-03-01T06:53:41;9.02;;;3.58;;
44564;SDS011;30275;51.822;-0.326;2023-03-01T06:56:06;8.70;;;3.22;;
44564;SDS011;30275;51.822;-0.326;2023-03-01T06:58:32;4.50;;;2.60;;
44564;SDS011;30275;51.822;-0.326;2023-03-01T07:00:58;4.35;;;2.55;;
44564;SDS011;30275;51.822;-0.326;2023-03-01T07:03:24;6.80;;;2.90;;
44564;SDS011;30275;51.822;-0.326;2023-03-01T07:05:50;8.05;;;2.70;;
44564;SDS011;30275;51.822;-0.326;2023-03-01T07:08:19;8.13;;;3.33;;
44564;SDS011;30275;51.822;-0.326;2023-03-01T07:10:44;5.55;;;2.55;;
44564;SDS011;30275;51.822;-0.326;2023-03-01T07:13:10;6.35;;;2.30;;
44564;SDS011;30275;51.822;-0.326;2023-03-01T07:15:36;5.72;;;2.65;;
44564;SDS011;30275;51.822;-0.326;2023-03-01T07:18:01;4.22;;;2.05;;
44564;SDS011;30275;51.822;-0.326;2023-03-01T07:20:27;3.53;;;2.38;;
44564;SDS011;30275;51.822;-0.326;2023-03-01T07:22:53;4.78;;;2.10;;
44564;SDS011;30275;51.822;-0.326;2023-03-01T07:25:19;7.65;;;2.70;;
44564;SDS011;30275;51.822;-0.326;2023-03-01T07:27:49;3.58;;;2.05;;
44564;SDS011;30275;51.822;-0.326;2023-03-01T07:30:16;5.70;;;2.03;;
44564;SDS011;30275;51.822;-0.326;2023-03-01T07:32:41;5.32;;;2.58;;
44564;SDS011;30275;51.822;-0.326;2023-03-01T07:35:07;3.83;;;2.10;;
44564;SDS011;30275;51.822;-0.326;2023-03-01T07:37:33;5.68;;;2.70;;
44564;SDS011;30275;51.822;-0.326;2023-03-01T07:39:58;4.38;;;2.72;;
44564;SDS011;30275;51.822;-0.326;2023-03-01T07:42:24;6.45;;;3.00;;
44564;SDS011;30275;51.822;-0.326;2023-03-01T07:44:49;5.60;;;2.42;;
44564;SDS011;30275;51.822;-0.326;2023-03-01T07:47:15;6.10;;;2.42;;
44564;SDS011;30275;51.822;-0.326;2023-03-01T07:49:41;6.82;;;2.67;;
44564;SDS011;30275;51.822;-0.326;2023-03-01T07:52:06;4.55;;;1.90;;
44564;SDS011;30275;51.822;-0.326;2023-03-01T07:54:34;5.57;;;2.13;;
44564;SDS011;30275;51.822;-0.326;2023-03-01T07:57:00;3.10;;;2.53;;
44564;SDS011;30275;51.822;-0.326;2023-03-01T07:59:25;2.85;;;1.92;;
44564;SDS011;30275;51.822;-0.326;2023-03-01T08:01:54;9.15;;;2.83;;
44564;SDS011;30275;51.822;-0.326;2023-03-01T08:04:20;5.38;;;2.55;;
44564;SDS011;30275;51.822;-0.326;2023-03-01T08:06:46;5.57;;;2.45;;
44564;SDS011;30275;51.822;-0.326;2023-03-01T08:09:12;5.13;;;2.88;;
44564;SDS011;30275;51.822;-0.326;2023-03-01T08:11:37;4.85;;;2.40;;
44564;SDS011;30275;51.822;-0.326;2023-03-01T08:14:03;6.25;;;2.45;;
44564;SDS011;30275;51.822;-0.326;2023-03-01T08:16:28;4.53;;;2.72;;
44564;SDS011;30275;51.822;-0.326;2023-03-01T08:18:54;4.57;;;2.65;;
44564;SDS011;30275;51.822;-0.326;2023-03-01T08:21:21;8.18;;;3.08;;
44564;SDS011;30275;51.822;-0.326;2023-03-01T08:23:47;5.28;;;3.05;;
44564;SDS011;30275;51.822;-0.326;2023-03-01T08:26:14;7.35;;;3.00;;
44564;SDS011;30275;51.822;-0.326;2023-03-01T08:28:44;7.10;;;3.38;;
44564;SDS011;30275;51.822;-0.326;2023-03-01T08:33:48;5.65;;;3.70;;
44564;SDS011;30275;51.822;-0.326;2023-03-01T08:36:23;8.82;;;3.95;;
44564;SDS011;30275;51.822;-0.326;2023-03-01T08:38:50;7.80;;;3.80;;
44564;SDS011;30275;51.822;-0.326;2023-03-01T08:41:16;8.70;;;4.53;;
44564;SDS011;30275;51.822;-0.326;2023-03-01T08:43:41;7.88;;;4.30;;
44564;SDS011;30275;51.822;-0.326;2023-03-01T08:46:07;12.02;;;4.68;;
44564;SDS011;30275;51.822;-0.326;2023-03-01T08:48:33;13.18;;;4.38;;
44564;SDS011;30275;51.822;-0.326;2023-03-01T08:53:38;7.25;;;4.13;;
44564;SDS011;30275;51.822;-0.326;2023-03-01T08:56:05;7.57;;;3.90;;
44564;SDS011;30275;51.822;-0.326;2023-03-01T08:58:31;7.40;;;3.70;;
44564;SDS011;30275;51.822;-0.326;2023-03-01T09:00:57;9.25;;;3.67;;
44564;SDS011;30275;51.822;-0.326;2023-03-01T09:03:23;4.88;;;2.85;;
44564;SDS011;30275;51.822;-0.326;2023-03-01T09:05:49;4.80;;;2.45;;
44564;SDS011;30275;51.822;-0.326;2023-03-01T09:08:16;4.00;;;2.72;;
44564;SDS011;30275;51.822;-0.326;2023-03-01T09:10:42;4.55;;;2.60;;
44564;SDS011;30275;51.822;-0.326;2023-03-01T09:13:08;6.07;;;2.60;;
44564;SDS011;30275;51.822;-0.326;2023-03-01T09:15:36;5.22;;;2.83;;
44564;SDS011;30275;51.822;-0.326;2023-03-01T09:18:02;4.38;;;2.78;;
44564;SDS011;30275;51.822;-0.326;2023-03-01T09:20:30;6.05;;;2.97;;
44564;SDS011;30275;51.822;-0.326;2023-03-01T09:22:56;6.50;;;2.70;;
44564;SDS011;30275;51.822;-0.326;2023-03-01T09:25:22;4.28;;;2.28;;
44564;SDS011;30275;51.822;-0.326;2023-03-01T09:27:49;2.97;;;2.10;;
44564;SDS011;30275;51.822;-0.326;2023-03-01T09:30:16;4.47;;;2.42;;
44564;SDS011;30275;51.822;-0.326;2023-03-01T09:32:42;4.00;;;2.20;;
44564;SDS011;30275;51.822;-0.326;2023-03-01T09:35:09;3.38;;;1.88;;
44564;SDS011;30275;51.822;-0.326;2023-03-01T09:37:36;3.15;;;1.80;;
44564;SDS011;30275;51.822;-0.326;2023-03-01T09:40:15;5.72;;;2.40;;
44564;SDS011;30275;51.822;-0.326;2023-03-01T09:48:00;5.78;;;1.80;;
44564;SDS011;30275;51.822;-0.326;2023-03-01T09:50:28;2.92;;;2.00;;
44564;SDS011;30275;51.822;-0.326;2023-03-01T09:53:07;5.28;;;1.85;;
44564;SDS011;30275;51.822;-0.326;2023-03-01T10:06:43;2.47;;;1.77;;
44564;SDS011;30275;51.822;-0.326;2023-03-01T10:09:16;2.58;;;1.60;;
44564;SDS011;30275;51.822;-0.326;2023-03-01T10:11:48;3.90;;;1.67;;
44564;SDS011;30275;51.822;-0.326;2023-03-01T10:16:57;4.45;;;2.00;;
44564;SDS011;30275;51.822;-0.326;2023-03-01T10:22:15;4.35;;;1.92;;
44564;SDS011;30275;51.822;-0.326;2023-03-01T10:24:43;4.50;;;1.80;;
44564;SDS011;30275;51.822;-0.326;2023-03-01T10:27:17;2.72;;;1.40;;
44564;SDS011;30275;51.822;-0.326;2023-03-01T10:30:02;2.55;;;1.30;;
44564;SDS011;30275;51.822;-0.326;2023-03-01T10:32:33;3.47;;;1.60;;
44564;SDS011;30275;51.822;-0.326;2023-03-01T10:34:59;2.13;;;1.42;;
44564;SDS011;30275;51.822;-0.326;2023-03-01T10:37:25;1.92;;;1.42;;
44564;SDS011;30275;51.822;-0.326;2023-03-01T10:42:27;5.03;;;1.50;;
44564;SDS011;30275;51.822;-0.326;2023-03-01T10:44:55;2.60;;;1.42;;
44564;SDS011;30275;51.822;-0.326;2023-03-01T10:47:22;4.07;;;1.27;;
44564;SDS011;30275;51.822;-0.326;2023-03-01T10:49:59;1.60;;;1.20;;
44564;SDS011;30275;51.822;-0.326;2023-03-01T10:52:29;1.08;;;0.90;;
44564;SDS011;30275;51.822;-0.326;2023-03-01T10:54:57;1.60;;;1.25;;
44564;SDS011;30275;51.822;-0.326;2023-03-01T10:57:31;1.40;;;0.85;;
44564;SDS011;30275;51.822;-0.326;2023-03-01T11:00:10;2.17;;;0.95;;
44564;SDS011;30275;51.822;-0.326;2023-03-01T11:02:41;1.02;;;0.82;;
44564;SDS011;30275;51.822;-0.326;2023-03-01T11:08:13;2.10;;;1.08;;
44564;SDS011;30275;51.822;-0.326;2023-03-01T11:10:33;1.50;;;0.90;;
44564;SDS011;30275;51.822;-0.326;2023-03-01T11:13:16;1.08;;;0.80;;
44564;SDS011;30275;51.822;-0.326;2023-03-01T11:16:00;1.00;;;0.70;;
44564;SDS011;30275;51.822;-0.326;2023-03-01T11:18:29;2.65;;;1.20;;
44564;SDS011;30275;51.822;-0.326;2023-03-01T11:20:56;1.70;;;1.10;;
44564;SDS011;30275;51.822;-0.326;2023-03-01T11:23:25;3.13;;;1.33;;
44564;SDS011;30275;51.822;-0.326;2023-03-01T11:25:56;1.48;;;1.35;;
44564;SDS011;30275;51.822;-0.326;2023-03-01T11:28:28;2.20;;;1.00;;
44564;SDS011;30275;51.822;-0.326;2023-03-01T11:30:56;1.85;;;0.80;;
44564;SDS011;30275;51.822;-0.326;2023-03-01T11:33:39;0.73;;;0.57;;
44564;SDS011;30275;51.822;-0.326;2023-03-01T11:36:16;0.73;;;0.63;;
44564;SDS011;30275;51.822;-0.326;2023-03-01T11:38:54;1.05;;;0.43;;
44564;SDS011;30275;51.822;-0.326;2023-03-01T11:41:23;1.63;;;0.57;;
44564;SDS011;30275;51.822;-0.326;2023-03-01T11:43:54;0.57;;;0.57;;
44564;SDS011;30275;51.822;-0.326;2023-03-01T11:57:51;2.97;;;1.40;;
44564;SDS011;30275;51.822;-0.326;2023-03-01T12:11:23;3.00;;;2.00;;
44564;SDS011;30275;51.822;-0.326;2023-03-01T12:14:08;2.67;;;1.80;;
44564;SDS011;30275;51.822;-0.326;2023-03-01T12:29:41;1.30;;;1.20;;
44564;SDS011;30275;51.822;-0.326;2023-03-01T12:35:05;2.42;;;1.55;;
44564;SDS011;30275;51.822;-0.326;2023-03-01T12:48:38;3.70;;;1.80;;
44564;SDS011;30275;51.822;-0.326;2023-03-01T12:51:16;1.40;;;1.27;;
44564;SDS011;30275;51.822;-0.326;2023-03-01T12:53:50;2.45;;;1.50;;
44564;SDS011;30275;51.822;-0.326;2023-03-01T12:56:19;4.53;;;1.67;;
44564;SDS011;30275;51.822;-0.326;2023-03-01T12:58:52;4.30;;;1.70;;
44564;SDS011;30275;51.822;-0.326;2023-03-01T13:04:34;3.65;;;2.20;;
44564;SDS011;30275;51.822;-0.326;2023-03-01T13:07:16;4.30;;;2.47;;
44564;SDS011;30275;51.822;-0.326;2023-03-01T13:17:47;2.43;;;1.17;;
44564;SDS011;30275;51.822;-0.326;2023-03-01T13:20:18;1.92;;;1.00;;
44564;SDS011;30275;51.822;-0.326;2023-03-01T13:22:46;1.55;;;1.02;;
44564;SDS011;30275;51.822;-0.326;2023-03-01T13:25:24;2.85;;;1.10;;
44564;SDS011;30275;51.822;-0.326;2023-03-01T13:27:50;1.75;;;1.05;;
44564;SDS011;30275;51.822;-0.326;2023-03-01T13:30:58;2.05;;;1.08;;
44564;SDS011;30275;51.822;-0.326;2023-03-01T13:35:50;1.30;;;1.17;;
44564;SDS011;30275;51.822;-0.326;2023-03-01T13:41:04;2.25;;;1.40;;
44564;SDS011;30275;51.822;-0.326;2023-03-01T13:44:04;1.35;;;0.90;;
44564;SDS011;30275;51.822;-0.326;2023-03-01T13:46:23;2.08;;;1.00;;
44564;SDS011;30275;51.822;-0.326;2023-03-01T13:48:53;1.13;;;0.93;;
44564;SDS011;30275;51.822;-0.326;2023-03-01T13:51:22;1.55;;;1.00;;
44564;SDS011;30275;51.822;-0.326;2023-03-01T13:53:50;1.10;;;1.00;;
44564;SDS011;30275;51.822;-0.326;2023-03-01T13:56:18;0.75;;;0.75;;
44564;SDS011;30275;51.822;-0.326;2023-03-01T13:59:02;2.35;;;0.98;;
44564;SDS011;30275;51.822;-0.326;2023-03-01T14:01:33;1.88;;;0.90;;
44564;SDS011;30275;51.822;-0.326;2023-03-01T14:04:00;1.42;;;1.00;;
44564;SDS011;30275;51.822;-0.326;2023-03-01T14:06:28;0.98;;;0.70;;
44564;SDS011;30275;51.822;-0.326;2023-03-01T14:09:02;1.33;;;1.00;;
44564;SDS011;30275;51.822;-0.326;2023-03-01T14:17:36;2.05;;;0.90;;
44564;SDS011;30275;51.822;-0.326;2023-03-01T14:20:16;1.20;;;0.70;;
44564;SDS011;30275;51.822;-0.326;2023-03-01T14:22:45;2.23;;;1.00;;
44564;SDS011;30275;51.822;-0.326;2023-03-01T14:28:02;1.98;;;0.90;;
44564;SDS011;30275;51.822;-0.326;2023-03-01T14:30:33;2.38;;;1.13;;
44564;SDS011;30275;51.822;-0.326;2023-03-01T14:33:15;1.38;;;1.05;;
44564;SDS011;30275;51.822;-0.326;2023-03-01T14:38:36;4.22;;;1.00;;
44564;SDS011;30275;51.822;-0.326;2023-03-01T14:41:25;0.70;;;0.70;;
44564;SDS011;30275;51.822;-0.326;2023-03-01T14:43:55;1.30;;;0.90;;
44564;SDS011;30275;51.822;-0.326;2023-03-01T14:46:39;1.00;;;0.90;;
44564;SDS011;30275;51.822;-0.326;2023-03-01T14:51:35;1.40;;;0.80;;
44564;SDS011;30275;51.822;-0.326;2023-03-01T14:54:02;0.70;;;0.70;;
44564;SDS011;30275;51.822;-0.326;2023-03-01T14:56:43;1.55;;;0.80;;
44564;SDS011;30275;51.822;-0.326;2023-03-01T14:59:10;1.05;;;0.77;;
44564;SDS011;30275;51.822;-0.326;2023-03-01T15:01:36;1.73;;;0.82;;
44564;SDS011;30275;51.822;-0.326;2023-03-01T15:04:02;1.40;;;1.05;;
44564;SDS011;30275;51.822;-0.326;2023-03-01T15:06:28;0.80;;;0.80;;
44564;SDS011;30275;51.822;-0.326;2023-03-01T15:08:54;1.27;;;1.00;;
44564;SDS011;30275;51.822;-0.326;2023-03-01T15:11:31;2.28;;;0.88;;
44564;SDS011;30275;51.822;-0.326;2023-03-01T15:13:58;1.88;;;0.90;;
44564;SDS011;30275;51.822;-0.326;2023-03-01T15:16:25;1.55;;;0.90;;
44564;SDS011;30275;51.822;-0.326;2023-03-01T15:18:57;0.60;;;0.60;;
44564;SDS011;30275;51.822;-0.326;2023-03-01T15:21:26;0.77;;;0.70;;
44564;SDS011;30275;51.822;-0.326;2023-03-01T15:26:44;0.60;;;0.60;;
44564;SDS011;30275;51.822;-0.326;2023-03-01T15:29:32;0.63;;;0.63;;
44564;SDS011;30275;51.822;-0.326;2023-03-01T15:32:04;0.80;;;0.80;;
44564;SDS011;30275;51.822;-0.326;2023-03-01T15:34:46;1.45;;;0.80;;
44564;SDS011;30275;51.822;-0.326;2023-03-01T15:42:57;2.33;;;0.90;;
44564;SDS011;30275;51.822;-0.326;2023-03-01T15:45:24;0.80;;;0.80;;
44564;SDS011;30275;51.822;-0.326;2023-03-01T15:47:53;0.75;;;0.70;;
44564;SDS011;30275;51.822;-0.326;2023-03-01T15:50:27;1.50;;;1.08;;
44564;SDS011;30275;51.822;-0.326;2023-03-01T15:52:54;2.33;;;0.85;;
44564;SDS011;30275;51.822;-0.326;2023-03-01T15:55:25;1.17;;;0.70;;
44564;SDS011;30275;51.822;-0.326;2023-03-01T15:58:13;0.88;;;0.80;;
44564;SDS011;30275;51.822;-0.326;2023-03-01T16:00:42;2.13;;;1.00;;
44564;SDS011;30275;51.822;-0.326;2023-03-01T16:03:08;1.67;;;0.90;;
44564;SDS011;30275;51.822;-0.326;2023-03-01T16:05:37;2.08;;;0.90;;
44564;SDS011;30275;51.822;-0.326;2023-03-01T16:08:03;1.90;;;0.98;;
44564;SDS011;30275;51.822;-0.326;2023-03-01T16:10:34;2.25;;;0.90;;
44564;SDS011;30275;51.822;-0.326;2023-03-01T16:13:00;5.55;;;1.55;;
44564;SDS011;30275;51.822;-0.326;2023-03-01T16:15:30;2.63;;;1.55;;
44564;SDS011;30275;51.822;-0.326;2023-03-01T16:17:57;2.28;;;1.15;;
44564;SDS011;30275;51.822;-0.326;2023-03-01T16:20:23;2.13;;;1.02;;
44564;SDS011;30275;51.822;-0.326;2023-03-01T16:22:49;2.47;;;1.10;;
44564;SDS011;30275;51.822;-0.326;2023-03-01T16:25:16;1.85;;;1.25;;
44564;SDS011;30275;51.822;-0.326;2023-03-01T16:27:44;2.65;;;1.00;;
44564;SDS011;30275;51.822;-0.326;2023-03-01T16:30:12;1.75;;;0.70;;
44564;SDS011;30275;51.822;-0.326;2023-03-01T16:32:42;3.35;;;1.08;;
44564;SDS011;30275;51.822;-0.326;2023-03-01T16:35:10;2.95;;;0.77;;
44564;SDS011;30275;51.822;-0.326;2023-03-01T16:37:37;1.60;;;1.10;;
44564;SDS011;30275;51.822;-0.326;2023-03-01T16:40:03;1.23;;;0.70;;
44564;SDS011;30275;51.822;-0.326;2023-03-01T16:42:34;0.82;;;0.70;;
44564;SDS011;30275;51.822;-0.326;2023-03-01T16:45:01;1.35;;;0.80;;
44564;SDS011;30275;51.822;-0.326;2023-03-01T16:47:27;0.85;;;0.50;;
44564;SDS011;30275;51.822;-0.326;2023-03-01T16:49:53;1.15;;;0.55;;
44564;SDS011;30275;51.822;-0.326;2023-03-01T16:52:20;1.77;;;0.90;;
44564;SDS011;30275;51.822;-0.326;2023-03-01T16:54:46;2.08;;;0.70;;
44564;SDS011;30275;51.822;-0.326;2023-03-01T16:57:11;0.90;;;0.70;;
44564;SDS011;30275;51.822;-0.326;2023-03-01T16:59:37;1.80;;;1.00;;
44564;SDS011;30275;51.822;-0.326;2023-03-01T17:02:03;4.68;;;1.20;;
44564;SDS011;30275;51.822;-0.326;2023-03-01T17:04:31;1.13;;;1.02;;
44564;SDS011;30275;51.822;-0.326;2023-03-01T17:06:56;2.33;;;1.02;;
44564;SDS011;30275;51.822;-0.326;2023-03-01T17:09:22;1.77;;;1.30;;
44564;SDS011;30275;51.822;-0.326;2023-03-01T17:11:48;2.42;;;1.38;;